ENHK

Hasvik Airport

Hasvik, Norway
METAR ENHK 211850Z 34004KT 5000 -SHSN VV017 M02/M06 Q1008
Observed Flight Rules
Jan-21 @ 18:50 UTC (2 hours ago) Instrument Flight Rules
Wind Visibility Clouds Conditions
340° at 4 knots 5,005 meters
  • Vertical visibility at 1,700' AGL
  • Light Snow
Temperatures Readings
Current -2°C / 28°F
Dewpoint -6°C / 21°F
Humidity 74%
Altimeter 29.76" Hg
Pressure 1007.92 hPa
Elevation 10
METAR ENHK 211850Z 34004KT 5000 -SHSN VV017 M02/M06 Q1008
Observed Flight Rules
Jan-21 @ 18:50 UTC
(2 hours ago)
LIFR
Wind Visibility
340° at 4 knots 5,005 meters
Clouds
  • Vertical visibility at 1,700' AGL
Conditions
  • Light Snow
Temperature Dewpoint
-2°C / 28°F -6°C / 21°F
Humidity Altimeter Pressure
74% 29.76" Hg 1007.92 hPa